Copper Center, AK (99573)

10:46 PM AKDT on August 27, 2015 (GMT -0800)
Klutina River | | Change Station
CLOSE
Current Station
Personal Weather Station
Location: Copper Center, AK
Elevation: 1100 ft
Nearby Weather Stations

Elev 1100 ft 61.95 °N, 145.32 °W | Updated 19 seconds ago

Overcast
Overcast
46.0 °F
Feels Like 46 °F
N
1.0
Wind Variable Wind from NW
Gusts 20.0 mph

Today
High -- | Low -- °F
--% Chance of Precip.
Yesterday
High -- | Low -- °F
Precip. -- in
6:17 AM 9:06 PM
Waxing Gibbous, 97% visible
Pressure 29.72 in
Visibility 10.0 miles
Clouds Overcast 8500 ft
Windchill 46 °F
Dew Point 32 °F
Humidity 58%
Rainfall 0.17 in
Snow Depth Not available.
UV 0 out of 12
Pollen Not available.
Air Quality Not available.
Flu Activity Not available.
METAR PAGK 280553Z AUTO 32010G25KT 10SM OVC085 08/M03 A2969 RMK AO2 PK WND 33032/0506 SLP063 60000 T00781033 10167 20078 53034 TSNO
Pressure 29.72 in
Visibility 10.0 miles
Clouds Overcast 8500 ft
Windchill 46 °F
Dew Point 32 °F
Humidity 58%
Rainfall 0.17 in
Snow Depth Not available.
UV 0 out of 12
Pollen Not available.
Air Quality Not available.
Flu Activity Not available.
METAR PAGK 280553Z AUTO 32010G25KT 10SM OVC085 08/M03 A2969 RMK AO2 PK WND 33032/0506 SLP063 60000 T00781033 10167 20078 53034 TSNO

10-Day Weather Forecast

×

Almanac

Astronomy

Aug. 27, 2015 Rise Set
Actual Time
Civil Twilight
Nautical Twilight
Astronomical Twilight
Moon
Length of Visible Light
Length of Day
Tomorrow will be .
, % of the Moon is Illuminated

Today's Extremes

State Highs State Lows

Community

WunderPhotos

Upload Photos

1,850,341 photos uploaded!

WunderBlogs® & News

Nearby

Air Quality

  Air Quality AQ Index Pollutant
Not available.

Snow Depth

Station Depth Elevation

Earthquake Activity

City Distance Mag. Time & Date
Minimum magnitude displayed is 2.5.

Coastal Water Temperatures

Place Temperature

Stations

Nearby Weather Stations

Station Location Temp. Windchill Dew Point Humidity Wind Precip. Elev Updated Type